Plano's Hourly Summary for Thursday, March 16, 2017
Hour Temp
(f)
RH
(%)
Solar Rad.
(MJ/m2)
Rainfall
(in)
Wind
(mph)
3/16/2017 12:00 AM 55 58 0 0 4
3/16/2017 1:00 AM 54 58 0 0 4.25
3/16/2017 2:00 AM 53 62 0 0 3.81
3/16/2017 3:00 AM 52 65 0 0 4.77
3/16/2017 4:00 AM 51 68 0 0 5.11
3/16/2017 5:00 AM 51 74 0 0 4.92
3/16/2017 6:00 AM 53 81 0 0 4.93
3/16/2017 7:00 AM 55 83 0 0 5.14
3/16/2017 8:00 AM 55 85 0.01 0 4.27
3/16/2017 9:00 AM 56 84 0.09 0 4.5
3/16/2017 10:00 AM 57 82 0.26 0 4.99
3/16/2017 11:00 AM 58 81 0.31 0 4.73
3/16/2017 12:00 PM 58 81 0.35 0 4.59
3/16/2017 1:00 PM 59 78 0.41 0 4.42
3/16/2017 2:00 PM 61 74 0.67 0 5.02
3/16/2017 3:00 PM 64 71 0.74 0 5.76
3/16/2017 4:00 PM 67 66 0.87 0 5.75
3/16/2017 5:00 PM 68 66 0.66 0 6.61
3/16/2017 6:00 PM 70 61 0.91 0 6.88
3/16/2017 7:00 PM 71 60 0.47 0 6.23
3/16/2017 8:00 PM 70 62 0.05 0 5.66
3/16/2017 9:00 PM 68 66 0 0 5.04
3/16/2017 10:00 PM 68 68 0 0 5.12
3/16/2017 11:00 PM 66 71 0 0 5.95
Data Summary 60 71 5.80 0.00 5.10